Time;durP1;ratioP1;P1;durP2;ratioP2;P2;SDS_P1;SDS_P2;PMS_P1;PMS_P2;Temp;Humidity;BMP_temperature;BMP_pressure;BME280_temperature;BME280_humidity;BME280_pressure;Samples;Min_cycle;Max_cycle;Signal;HPM_P1;HPM_P2
2022/05/07 00:01:26;;;;;;;7.80;3.22;;;;;;;13.78;64.57;100870.97;5150657;27;20048;-79
2022/05/07 00:03:52;;;;;;;6.67;3.33;;;;;;;13.71;64.51;100872.00;5166882;27;20039;-79
2022/05/07 00:06:17;;;;;;;7.60;3.43;;;;;;;13.69;64.51;100872.22;5164296;27;20027;-79
2022/05/07 00:08:42;;;;;;;6.37;3.00;;;;;;;13.69;64.69;100861.41;5164633;27;20027;-80
2022/05/07 00:11:07;;;;;;;10.60;4.50;;;;;;;13.68;64.88;100861.59;5164051;27;20437;-80
2022/05/07 00:13:33;;;;;;;13.63;6.50;;;;;;;13.71;64.87;100866.59;5162795;27;20264;-79
2022/05/07 00:18:59;;;;;;;13.40;5.80;;;;;;;13.79;64.15;100860.94;5034586;28;20272;-80
2022/05/07 00:21:24;;;;;;;10.87;4.77;;;;;;;13.85;63.56;100862.78;5132224;27;20468;-80
2022/05/07 00:23:49;;;;;;;11.30;4.55;;;;;;;13.94;63.89;100861.50;5159102;27;20433;-80
2022/05/07 00:26:15;;;;;;;11.02;4.28;;;;;;;13.95;63.91;100855.03;5159347;27;20044;-80
2022/05/07 00:28:40;;;;;;;11.32;4.85;;;;;;;13.96;64.22;100855.88;5140803;27;20022;-79
2022/05/07 00:31:05;;;;;;;7.93;3.67;;;;;;;14.10;63.92;100852.88;5158486;27;20058;-80
2022/05/07 00:33:31;;;;;;;7.32;3.38;;;;;;;13.99;64.61;100855.41;5158799;27;20027;-80
2022/05/07 00:35:56;;;;;;;9.13;3.70;;;;;;;13.90;64.70;100849.44;5158639;27;20030;-80
2022/05/07 00:38:21;;;;;;;7.73;3.30;;;;;;;13.78;65.14;100852.00;5158382;27;20710;-80
2022/05/07 00:40:46;;;;;;;7.57;3.23;;;;;;;13.70;65.74;100837.84;5139333;27;20125;-79
2022/05/07 00:43:15;;;;;;;6.90;3.43;;;;;;;13.51;66.37;100848.56;5157902;27;20026;-80
2022/05/07 00:45:44;;;;;;;10.63;3.85;;;;;;;13.61;66.69;100841.88;5157898;27;20042;-80
2022/05/07 00:48:10;;;;;;;7.75;3.03;;;;;;;13.60;66.37;100846.44;5158347;27;20113;-80
2022/05/07 00:53:22;;;;;;;8.40;3.15;;;;;;;13.31;67.67;100839.66;5157933;27;20077;-79
2022/05/07 00:55:48;;;;;;;9.38;3.63;;;;;;;13.26;67.64;100844.88;5157565;27;20421;-79
2022/05/07 00:58:14;;;;;;;9.68;3.72;;;;;;;13.20;67.88;100843.03;5158048;27;20031;-79
2022/05/07 01:00:39;;;;;;;9.77;4.15;;;;;;;13.19;68.30;100838.66;5160050;27;20071;-80
2022/05/07 01:03:05;;;;;;;10.10;4.05;;;;;;;13.19;67.57;100839.50;5160597;27;20030;-80
2022/05/07 01:05:31;;;;;;;7.68;3.80;;;;;;;13.11;68.09;100846.94;5164070;27;20031;-79
2022/05/07 01:07:56;;;;;;;7.47;3.33;;;;;;;13.07;68.36;100829.50;5162248;27;20033;-79
2022/05/07 01:10:23;;;;;;;6.90;3.17;;;;;;;12.94;69.26;100830.34;5160174;27;20031;-79
2022/05/07 01:12:48;;;;;;;8.63;3.40;;;;;;;12.90;69.07;100839.91;5159815;27;20035;-79
2022/05/07 01:15:14;;;;;;;7.43;3.20;;;;;;;12.75;70.00;100832.03;5159285;27;20072;-79
2022/05/07 01:17:39;;;;;;;7.20;3.40;;;;;;;12.83;69.52;100828.28;5158890;27;20477;-79
2022/05/07 01:20:09;;;;;;;10.50;3.80;;;;;;;12.56;70.85;100834.72;5160619;27;20054;-80
2022/05/07 01:22:35;;;;;;;8.07;3.70;;;;;;;12.46;71.10;100829.75;5160451;27;20260;-79
2022/05/07 01:25:01;;;;;;;10.30;3.97;;;;;;;12.15;72.46;100822.25;5158789;27;20114;-79
2022/05/07 01:27:26;;;;;;;9.30;4.55;;;;;;;12.05;72.65;100827.19;5140852;27;20530;-79
2022/05/07 01:29:52;;;;;;;9.18;4.28;;;;;;;11.87;73.92;100819.66;5159458;27;20072;-79
2022/05/07 01:32:18;;;;;;;7.93;4.20;;;;;;;11.86;73.69;100825.28;5159451;27;20392;-79
2022/05/07 01:34:43;;;;;;;9.75;4.85;;;;;;;11.89;73.64;100825.69;5160223;27;20106;-79
2022/05/07 01:37:08;;;;;;;8.73;4.25;;;;;;;11.90;73.72;100821.97;5140559;27;20098;-79
2022/05/07 01:39:34;;;;;;;9.53;4.07;;;;;;;12.03;73.61;100824.69;5159362;27;20030;-79
2022/05/07 01:41:59;;;;;;;9.48;4.43;;;;;;;12.22;72.59;100819.53;5141693;27;20520;-79
2022/05/07 01:44:24;;;;;;;9.40;4.53;;;;;;;12.16;72.72;100819.34;5163712;27;20091;-79
2022/05/07 01:49:34;;;;;;;10.90;4.10;;;;;;;12.36;72.61;100824.72;5165217;27;20041;-79
2022/05/07 01:51:59;;;;;;;10.18;4.32;;;;;;;12.31;72.33;100816.44;5165094;27;20027;-79
2022/05/07 01:54:26;;;;;;;9.30;4.47;;;;;;;12.50;71.55;100817.50;5162173;27;20035;-79
2022/05/07 01:56:52;;;;;;;9.80;4.45;;;;;;;12.27;72.11;100817.03;5164377;27;20049;-79
2022/05/07 01:59:17;;;;;;;8.73;4.47;;;;;;;12.18;72.97;100812.91;5164520;27;20027;-79
2022/05/07 02:01:42;;;;;;;13.87;5.40;;;;;;;12.15;72.80;100806.88;5166526;27;20054;-80
2022/05/07 02:04:08;;;;;;;12.30;4.90;;;;;;;12.16;72.81;100808.53;5167234;27;20248;-80
2022/05/07 02:06:33;;;;;;;14.23;5.83;;;;;;;12.15;72.88;100812.25;5168306;27;20099;-81
2022/05/07 02:08:58;;;;;;;12.17;5.17;;;;;;;12.18;72.50;100806.44;5167205;27;20023;-80
2022/05/07 02:11:24;;;;;;;10.35;5.50;;;;;;;12.24;72.32;100806.66;5167592;27;20026;-81
2022/05/07 02:13:49;;;;;;;9.93;4.17;;;;;;;12.21;72.85;100809.75;5168198;27;20453;-80
2022/05/07 02:16:14;;;;;;;11.33;5.07;;;;;;;12.16;73.04;100802.28;5167351;27;20290;-80
2022/05/07 02:18:40;;;;;;;11.33;5.43;;;;;;;12.30;72.26;100805.84;5160263;27;20037;-80
2022/05/07 02:21:05;;;;;;;8.00;4.17;;;;;;;12.34;72.13;100801.69;5158776;27;20030;-80
2022/05/07 02:23:30;;;;;;;11.17;4.40;;;;;;;12.13;73.10;100805.41;5157914;27;20498;-80
2022/05/07 02:25:55;;;;;;;11.07;4.70;;;;;;;12.08;73.22;100802.47;5139372;27;20257;-80
2022/05/07 02:28:21;;;;;;;13.70;6.17;;;;;;;12.02;73.17;100808.69;5157316;27;20031;-80
2022/05/07 02:30:46;;;;;;;10.60;5.60;;;;;;;12.01;73.51;100797.06;5139032;27;20030;-80
2022/05/07 02:33:11;;;;;;;11.83;4.40;;;;;;;11.96;73.82;100799.56;5138238;27;20294;-79
2022/05/07 02:35:37;;;;;;;11.73;5.37;;;;;;;12.09;73.01;100799.56;5156839;27;20376;-80
2022/05/07 02:38:02;;;;;;;11.27;4.93;;;;;;;12.04;72.95;100799.34;5139488;27;20031;-80
2022/05/07 02:40:28;;;;;;;10.45;4.93;;;;;;;12.02;73.50;100797.88;5157301;27;20441;-80
2022/05/07 02:42:53;;;;;;;13.60;5.93;;;;;;;12.11;72.75;100802.91;5156878;27;20485;-80
2022/05/07 02:45:18;;;;;;;12.33;5.27;;;;;;;12.43;72.09;100795.84;5156646;27;20023;-80
2022/05/07 02:47:44;;;;;;;10.77;5.55;;;;;;;12.68;70.88;100798.75;5161163;27;20075;-80
2022/05/07 02:50:11;;;;;;;11.80;5.35;;;;;;;12.45;71.13;100804.59;5141844;27;20034;-80
2022/05/07 02:52:38;;;;;;;11.75;5.63;;;;;;;12.23;72.13;100804.97;5142595;27;20031;-80
2022/05/07 02:55:05;;;;;;;14.32;5.57;;;;;;;12.16;72.63;100802.28;5142732;27;20046;-81
2022/05/07 02:57:31;;;;;;;12.38;4.80;;;;;;;11.91;73.83;100801.19;5160789;27;20042;-80
2022/05/07 02:59:57;;;;;;;12.55;6.28;;;;;;;11.89;73.55;100798.69;5160607;27;20139;-80
2022/05/07 03:02:23;;;;;;;15.30;6.75;;;;;;;11.86;73.63;100809.06;5160689;27;20109;-80
2022/05/07 03:04:49;;;;;;;12.20;5.25;;;;;;;11.80;73.56;100805.34;5160559;27;20034;-79
2022/05/07 03:07:15;;;;;;;9.30;5.20;;;;;;;11.83;73.52;100804.91;5161090;27;20046;-80
2022/05/07 03:09:40;;;;;;;12.55;6.35;;;;;;;11.91;73.09;100802.03;5160354;27;20030;-80
2022/05/07 03:12:06;;;;;;;12.60;6.30;;;;;;;11.79;73.47;100803.66;5159565;27;20031;-79
2022/05/07 03:14:32;;;;;;;11.52;5.88;;;;;;;11.84;73.99;100806.56;5141466;27;20043;-79
2022/05/07 03:16:57;;;;;;;13.45;5.97;;;;;;;11.83;73.97;100799.50;5159890;27;20520;-80
2022/05/07 03:19:23;;;;;;;11.00;5.53;;;;;;;11.79;73.94;100803.66;5160370;27;20027;-80
2022/05/07 03:21:48;;;;;;;11.60;5.32;;;;;;;11.79;73.78;100800.97;5160176;27;20049;-81
2022/05/07 03:24:14;;;;;;;14.95;5.70;;;;;;;11.78;74.40;100802.84;5160000;27;20034;-81
2022/05/07 03:26:39;;;;;;;12.50;5.87;;;;;;;11.77;73.99;100800.34;5159003;27;20035;-81
2022/05/07 03:29:04;;;;;;;12.77;5.50;;;;;;;11.74;74.42;100798.00;5140750;27;20259;-81
2022/05/07 03:31:30;;;;;;;15.13;6.03;;;;;;;11.64;74.83;100800.28;5141044;27;20029;-81
2022/05/07 03:33:56;;;;;;;12.98;5.95;;;;;;;11.66;74.89;100792.78;5159699;27;20025;-81
2022/05/07 03:36:21;;;;;;;11.82;5.82;;;;;;;11.66;74.92;100790.06;5159472;27;20030;-81
2022/05/07 03:38:48;;;;;;;12.93;6.20;;;;;;;11.68;74.77;100791.53;5141058;27;20087;-81
2022/05/07 03:41:14;;;;;;;14.13;5.60;;;;;;;11.77;74.34;100789.53;5140832;27;20454;-81
2022/05/07 03:43:40;;;;;;;12.57;5.78;;;;;;;11.85;73.54;100786.63;5159174;27;20027;-80
2022/05/07 03:46:06;;;;;;;12.48;5.95;;;;;;;11.92;73.36;100789.34;5141142;27;20102;-80
2022/05/07 03:48:32;;;;;;;12.48;5.60;;;;;;;12.03;72.57;100786.03;5159570;27;20094;-80
2022/05/07 03:50:58;;;;;;;13.85;6.43;;;;;;;12.08;72.16;100795.19;5159196;27;20062;-80
2022/05/07 03:53:29;;;;;;;14.77;6.55;;;;;;;12.12;71.98;100787.53;5158977;27;20465;-81
2022/05/07 03:56:14;;;;;;;14.07;6.53;;;;;;;12.14;71.51;100791.69;5158683;27;20492;-81
2022/05/07 03:58:39;;;;;;;13.95;6.63;;;;;;;12.17;71.25;100795.84;5157935;27;20033;-81
2022/05/07 04:01:05;;;;;;;15.50;6.63;;;;;;;12.27;70.47;100795.44;5158513;27;20378;-80
2022/05/07 04:03:31;;;;;;;13.52;5.82;;;;;;;12.28;70.29;100797.09;5158463;27;20381;-80
2022/05/07 04:05:57;;;;;;;14.40;7.15;;;;;;;12.33;70.02;100795.44;5158876;27;20026;-81
2022/05/07 04:08:23;;;;;;;15.52;6.82;;;;;;;12.43;68.79;100792.31;5158705;27;20033;-80
2022/05/07 04:10:49;;;;;;;16.70;7.35;;;;;;;12.57;68.23;100793.13;5158371;27;20035;-80
2022/05/07 04:13:18;;;;;;;17.08;7.57;;;;;;;12.67;67.91;100793.56;5158492;27;20038;-80
2022/05/07 04:15:44;;;;;;;14.63;6.95;;;;;;;12.77;67.03;100797.50;5158628;27;20113;-81
2022/05/07 04:18:10;;;;;;;;;;;;;;;12.82;66.78;100795.00;5158813;27;20038;-80
2022/05/07 04:20:36;;;;;;;14.38;6.50;;;;;;;12.89;66.28;100794.16;5158359;27;19952;-80
2022/05/07 04:23:02;;;;;;;15.93;6.90;;;;;;;12.90;66.19;100796.63;5139232;27;20023;-79
2022/05/07 04:25:28;;;;;;;18.15;7.63;;;;;;;12.99;65.85;100798.09;5158299;27;20041;-79
2022/05/07 04:27:54;;;;;;;16.00;6.88;;;;;;;13.03;65.73;100795.78;5157436;27;20030;-79
2022/05/07 04:30:20;;;;;;;15.30;6.93;;;;;;;13.05;65.79;100796.41;5158476;27;20106;-79
2022/05/07 04:32:45;;;;;;;;;;;;;;;13.08;65.61;100799.50;5139744;27;20114;-79
2022/05/07 04:35:10;;;;;;;14.88;6.75;;;;;;;13.11;65.35;100798.25;5158214;27;20005;-78
2022/05/07 04:37:36;;;;;;;15.07;6.82;;;;;;;13.07;65.74;100799.75;5161784;27;20034;-80
2022/05/07 04:40:02;;;;;;;14.33;6.73;;;;;;;13.12;65.60;100791.81;5145308;27;20038;-79
2022/05/07 04:42:27;;;;;;;15.00;6.63;;;;;;;13.12;65.81;100805.31;5163439;27;20050;-80
2022/05/07 04:44:52;;;;;;;11.60;6.03;;;;;;;13.10;65.88;100807.41;5162389;27;20038;-80
2022/05/07 04:47:18;;;;;;;15.52;7.32;;;;;;;13.05;66.15;100804.53;5162906;27;20456;-80
2022/05/07 04:49:43;;;;;;;17.23;7.93;;;;;;;13.12;65.85;100805.31;5163862;27;20076;-80
2022/05/07 04:52:10;;;;;;;16.63;7.20;;;;;;;13.14;65.91;100804.06;5163946;27;20690;-80
2022/05/07 04:54:35;;;;;;;17.80;8.05;;;;;;;13.14;66.40;100805.94;5166289;27;20090;-80
2022/05/07 04:57:01;;;;;;;13.13;6.85;;;;;;;13.19;65.90;100811.59;5160456;27;20078;-79
2022/05/07 04:59:27;;;;;;;;;;;;;;;13.35;64.62;100808.41;5160345;27;20430;-80
2022/05/07 05:01:52;;;;;;;17.55;7.82;;;;;;;13.51;63.92;100812.53;5159289;27;19975;-79
2022/05/07 05:04:18;;;;;;;19.10;8.73;;;;;;;13.54;63.74;100814.81;5160901;27;20046;-79
2022/05/07 05:06:44;;;;;;;16.73;8.48;;;;;;;13.51;63.95;100813.34;5159809;27;20687;-79
2022/05/07 05:09:12;;;;;;;16.63;7.70;;;;;;;13.63;63.27;100821.63;5160970;27;20065;-80
2022/05/07 05:11:38;;;;;;;15.85;8.30;;;;;;;13.57;63.15;100818.97;5160831;27;20041;-79
2022/05/07 05:15:01;;;;;;;18.67;8.60;;;;;;;13.57;63.33;100832.50;5161388;27;20026;-79
2022/05/07 05:16:49;;;;;;;19.25;9.00;;;;;;;13.59;63.18;100828.53;5158553;27;20473;-79
2022/05/07 05:19:15;;;;;;;;;;;;;;;13.63;63.19;100827.03;5141314;27;20019;-80
2022/05/07 05:21:41;;;;;;;17.03;8.80;;;;;;;13.58;63.02;100824.16;5142275;27;20024;-79
2022/05/07 05:24:06;;;;;;;16.80;7.72;;;;;;;13.69;62.94;100825.34;5158266;27;20026;-78
2022/05/07 05:26:32;;;;;;;17.10;8.20;;;;;;;13.70;62.75;100832.44;5139794;27;20034;-78
2022/05/07 05:28:57;;;;;;;15.70;7.67;;;;;;;13.82;62.45;100838.81;5158034;27;20090;-78
2022/05/07 05:31:23;;;;;;;16.85;8.65;;;;;;;13.82;62.41;100831.53;5158575;27;20034;-80
2022/05/07 05:33:49;;;;;;;17.50;8.15;;;;;;;13.75;62.30;100835.34;5159286;27;20031;-80
2022/05/07 05:36:14;;;;;;;20.02;9.35;;;;;;;13.77;62.54;100838.66;5160661;27;20027;-83
2022/05/07 05:38:40;;;;;;;16.17;8.13;;;;;;;13.78;62.97;100837.63;5138680;27;20035;-77
2022/05/07 05:41:05;;;;;;;16.58;7.95;;;;;;;13.85;62.38;100841.13;5155775;27;20034;-77
2022/05/07 05:43:31;;;;;;;14.47;7.67;;;;;;;13.93;62.48;100849.00;5137213;27;20038;-78
2022/05/07 05:45:56;;;;;;;17.27;8.23;;;;;;;14.03;61.88;100852.06;5159114;27;20110;-80
2022/05/07 05:48:24;;;;;;;16.30;7.50;;;;;;;14.11;61.98;100849.09;5137555;27;20432;-78
2022/05/07 05:50:49;;;;;;;18.00;7.32;;;;;;;14.12;62.06;100848.06;5155019;27;20592;-78
2022/05/07 05:53:14;;;;;;;15.45;7.68;;;;;;;14.25;61.74;100850.69;5155169;27;20408;-76
2022/05/07 05:55:40;;;;;;;17.08;7.55;;;;;;;14.30;61.59;100841.91;5136657;27;20034;-77
2022/05/07 05:58:05;;;;;;;19.70;8.17;;;;;;;14.40;61.00;100846.81;5155172;27;20458;-76
2022/05/07 06:00:30;;;;;;;16.73;8.27;;;;;;;14.33;61.41;100851.47;5154838;27;20279;-77
2022/05/07 06:02:56;;;;;;;18.30;9.15;;;;;;;14.45;61.45;100850.56;5154624;27;20109;-78
2022/05/07 06:05:21;;;;;;;20.00;8.13;;;;;;;14.46;60.82;100846.81;5136277;27;20078;-77
2022/05/07 06:07:46;;;;;;;16.00;7.27;;;;;;;14.54;60.65;100851.13;5136123;27;20260;-77
2022/05/07 06:10:11;;;;;;;17.35;7.20;;;;;;;14.51;61.31;100843.44;5136374;27;20030;-77
2022/05/07 06:12:37;;;;;;;14.93;6.80;;;;;;;14.66;60.44;100848.53;5154692;27;20037;-77
2022/05/07 06:15:04;;;;;;;14.53;7.57;;;;;;;14.72;60.40;100850.34;5155030;27;20139;-77
2022/05/07 06:17:29;;;;;;;15.05;6.53;;;;;;;14.77;60.71;100845.94;5154821;27;20255;-77
2022/05/07 06:19:54;;;;;;;16.80;7.00;;;;;;;14.87;59.73;100854.38;5155759;27;20031;-77
2022/05/07 06:22:20;;;;;;;16.07;7.20;;;;;;;14.94;60.01;100851.63;5159090;27;20268;-78
2022/05/07 06:27:28;;;;;;;15.15;7.50;;;;;;;15.08;59.49;100855.03;5159104;27;20095;-78
2022/05/07 06:29:57;;;;;;;16.93;8.03;;;;;;;15.35;58.69;100853.72;5159321;27;20023;-78
2022/05/07 06:32:23;;;;;;;14.38;6.50;;;;;;;15.42;58.68;100853.63;5158684;27;20042;-78
2022/05/07 06:34:49;;;;;;;17.23;8.32;;;;;;;15.23;59.48;100860.94;5140249;27;20376;-78
2022/05/07 06:37:14;;;;;;;16.23;7.18;;;;;;;15.32;58.81;100865.03;5158749;27;20039;-78
2022/05/07 06:39:40;;;;;;;16.17;8.10;;;;;;;15.34;58.74;100860.19;5158720;27;20479;-78
2022/05/07 06:42:07;;;;;;;11.70;6.63;;;;;;;15.22;59.11;100868.28;5158397;27;20042;-78
2022/05/07 06:44:32;;;;;;;14.98;6.90;;;;;;;15.35;58.79;100861.88;5158472;27;20069;-78
2022/05/07 06:46:57;;;;;;;13.75;7.32;;;;;;;15.49;58.49;100863.38;5158847;27;20058;-77
2022/05/07 06:49:23;;;;;;;15.07;7.70;;;;;;;15.53;58.85;100858.31;5159078;27;20034;-79
2022/05/07 06:51:49;;;;;;;15.15;7.28;;;;;;;15.55;58.58;100856.22;5158518;27;20292;-78
2022/05/07 06:54:15;;;;;;;14.93;7.47;;;;;;;15.38;59.37;100857.88;5158246;27;20026;-77
2022/05/07 06:56:40;;;;;;;16.65;6.75;;;;;;;15.39;59.26;100854.94;5158395;27;20369;-78
2022/05/07 06:59:05;;;;;;;15.15;7.43;;;;;;;15.24;60.42;100860.72;5142542;27;20031;-78
2022/05/07 07:01:31;;;;;;;14.02;7.10;;;;;;;15.66;58.41;100854.63;5158712;27;20537;-79
2022/05/07 07:03:56;;;;;;;14.80;6.80;;;;;;;15.74;58.14;100860.59;5158118;27;20050;-77
2022/05/07 07:06:22;;;;;;;;;;;;;;;15.79;58.53;100860.72;5160258;27;20030;-79
2022/05/07 07:08:48;;;;;;;18.33;8.03;;;;;;;15.88;57.86;100862.09;5159833;27;19921;-78
2022/05/07 07:11:14;;;;;;;14.75;6.88;;;;;;;16.16;57.57;100855.22;5158727;27;20050;-77
2022/05/07 07:13:41;;;;;;;15.32;6.53;;;;;;;16.27;57.18;100859.88;5158240;27;20060;-77
2022/05/07 07:16:06;;;;;;;14.68;6.72;;;;;;;16.43;56.49;100859.22;5157891;27;20525;-78
2022/05/07 07:18:31;;;;;;;16.02;7.63;;;;;;;16.58;56.09;100858.78;5158407;27;20023;-77
2022/05/07 07:20:57;;;;;;;12.80;6.28;;;;;;;16.62;56.27;100865.41;5157823;27;20101;-77
2022/05/07 07:23:22;;;;;;;;;;;;;;;16.74;56.24;100862.75;5158148;27;20023;-77
2022/05/07 07:25:47;;;;;;;14.07;6.28;;;;;;;16.81;56.41;100868.91;5157835;27;19910;-77
2022/05/07 07:28:13;;;;;;;;;;;;;;;17.03;55.36;100864.53;5157871;27;20054;-77
2022/05/07 07:30:39;;;;;;;15.63;6.82;;;;;;;17.22;54.58;100859.78;5139027;27;19911;-77
2022/05/07 07:33:04;;;;;;;;;;;;;;;17.32;54.21;100860.03;5156951;27;20029;-78
2022/05/07 07:35:30;;;;;;;14.48;6.70;;;;;;;17.38;54.14;100858.25;5157377;27;19911;-77
2022/05/07 07:37:56;;;;;;;15.43;6.63;;;;;;;17.41;53.92;100858.59;5157467;27;20022;-77
2022/05/07 07:40:21;;;;;;;;;;;;;;;17.41;53.94;100861.31;5158151;27;20033;-77
2022/05/07 07:42:46;;;;;;;14.47;6.37;;;;;;;17.59;53.64;100863.88;5157471;27;20334;-77
2022/05/07 07:47:59;;;;;;;17.10;5.88;;;;;;;17.93;52.82;100864.03;5156959;27;20405;-77
2022/05/07 07:50:26;;;;;;;10.95;5.25;;;;;;;18.11;53.03;100863.84;5157759;27;20107;-77
2022/05/07 07:53:04;;;;;;;12.20;5.70;;;;;;;18.08;52.81;100861.66;5157213;27;20081;-77
2022/05/07 07:55:29;;;;;;;12.05;5.70;;;;;;;18.09;52.94;100862.47;5157192;27;20058;-77
2022/05/07 07:57:56;;;;;;;;;;;;;;;18.15;53.02;100865.03;5139009;27;20097;-77
2022/05/07 08:00:22;;;;;;;14.73;6.55;;;;;;;18.22;53.48;100868.44;5157297;27;20006;-77
2022/05/07 08:02:48;;;;;;;14.35;6.68;;;;;;;18.23;53.79;100870.09;5157283;27;20079;-77
2022/05/07 08:05:14;;;;;;;16.05;6.70;;;;;;;18.63;52.98;100874.69;5139135;27;20047;-76
2022/05/07 08:13:07;;;;;;;13.73;6.32;;;;;;;18.58;51.98;100877.28;5157359;27;20069;-77
2022/05/07 08:15:33;;;;;;;11.73;6.13;;;;;;;18.82;51.17;100869.78;5160114;27;20023;-80
2022/05/07 08:17:59;;;;;;;;;;;;;;;18.69;52.02;100868.22;5162609;27;20473;-84
2022/05/07 08:20:24;;;;;;;11.90;6.20;;;;;;;18.93;51.23;100864.25;5144252;27;19911;-85
2022/05/07 08:22:50;;;;;;;14.88;7.22;;;;;;;19.05;51.15;100864.13;5167195;27;20057;-85
2022/05/07 08:25:15;;;;;;;13.80;7.47;;;;;;;19.04;51.47;100871.50;5154818;27;20048;-83
2022/05/07 08:27:40;;;;;;;;;;;;;;;19.05;52.18;100875.91;5175305;27;20452;-83
2022/05/07 08:30:06;;;;;;;14.60;6.80;;;;;;;19.00;52.35;100875.81;5173920;27;19953;-82
2022/05/07 08:32:31;;;;;;;;;;;;;;;18.90;52.69;100872.94;5174459;27;20112;-82
2022/05/07 08:34:57;;;;;;;15.43;7.80;;;;;;;19.03;52.64;100872.59;5175013;27;19921;-83
2022/05/07 08:37:23;;;;;;;15.23;7.82;;;;;;;18.98;53.26;100878.00;5174236;27;20019;-84
2022/05/07 08:39:48;;;;;;;19.58;8.93;;;;;;;18.98;52.88;100878.00;5171822;27;20090;-82
2022/05/07 08:42:14;;;;;;;;;;;;;;;18.92;52.62;100883.59;5166548;27;20086;-81
2022/05/07 08:44:41;;;;;;;14.07;7.93;;;;;;;19.01;52.90;100877.47;5163641;27;19911;-79
2022/05/07 08:47:06;;;;;;;15.85;8.05;;;;;;;19.06;52.39;100879.47;5166226;27;20034;-79
2022/05/07 08:49:31;;;;;;;16.65;8.52;;;;;;;18.99;52.71;100884.25;5165792;27;20023;-79
2022/05/07 08:51:57;;;;;;;;;;;;;;;18.82;52.90;100881.53;5166819;27;20034;-79
2022/05/07 08:54:23;;;;;;;20.38;7.95;;;;;;;19.01;51.55;100876.63;5148470;27;19973;-78
2022/05/07 08:56:49;;;;;;;12.90;7.07;;;;;;;19.11;51.72;100879.53;5145498;27;20453;-78
2022/05/07 08:59:14;;;;;;;;;;;;;;;19.14;51.60;100873.59;5142246;27;20027;-77
2022/05/07 09:01:42;;;;;;;17.37;6.97;;;;;;;19.21;51.67;100878.84;5141091;27;20631;-78
2022/05/07 09:04:11;;;;;;;12.75;7.00;;;;;;;19.36;51.14;100879.91;5164223;27;20022;-78
2022/05/07 09:06:37;;;;;;;15.38;7.43;;;;;;;19.39;50.62;100878.56;5163519;27;20500;-78
2022/05/07 09:09:06;;;;;;;23.10;8.93;;;;;;;19.43;50.17;100882.47;5145471;27;20027;-79
2022/05/07 09:11:42;;;;;;;19.48;8.05;;;;;;;19.21;51.39;100879.69;5160746;27;20102;-78
2022/05/07 09:14:08;;;;;;;15.55;7.93;;;;;;;19.18;51.55;100877.44;5160433;27;20026;-80
2022/05/07 09:16:40;;;;;;;;;;;;;;;19.37;51.57;100881.56;5161318;27;20077;-78
2022/05/07 09:19:05;;;;;;;18.25;7.43;;;;;;;19.55;51.37;100877.72;5160540;27;19907;-78
2022/05/07 09:21:32;;;;;;;14.00;7.13;;;;;;;19.73;50.58;100876.59;5160127;27;20026;-78
2022/05/07 09:24:06;;;;;;;15.38;7.15;;;;;;;19.76;49.61;100873.34;5158693;27;20027;-78
2022/05/07 09:26:39;;;;;;;15.90;7.72;;;;;;;20.01;48.97;100875.56;5140186;27;20033;-77
2022/05/07 09:29:08;;;;;;;14.63;7.25;;;;;;;19.72;48.56;100881.22;5157409;27;20528;-77
2022/05/07 09:31:34;;;;;;;13.98;7.03;;;;;;;19.67;48.92;100874.88;5156922;27;20030;-78
2022/05/07 09:36:57;;;;;;;14.48;7.40;;;;;;;20.08;48.43;100870.72;5157272;27;20030;-77
2022/05/07 09:39:22;;;;;;;14.07;8.32;;;;;;;20.26;47.43;100875.00;5137014;27;20102;-77
2022/05/07 09:41:54;;;;;;;13.60;6.78;;;;;;;20.32;47.75;100871.25;5155851;27;20121;-77
2022/05/07 09:44:24;;;;;;;14.23;7.65;;;;;;;20.38;47.53;100876.56;5156217;27;20022;-77
2022/05/07 09:46:49;;;;;;;14.30;6.65;;;;;;;20.44;47.40;100872.75;5155647;27;20036;-77
2022/05/07 09:49:16;;;;;;;13.05;6.95;;;;;;;20.42;47.44;100865.94;5155827;27;20027;-77
2022/05/07 09:51:42;;;;;;;15.48;7.03;;;;;;;20.47;47.28;100867.84;5156203;27;20480;-78
2022/05/07 09:59:37;;;;;;;14.77;6.10;;;;;;;20.22;47.85;100871.97;5157144;27;20033;-77
2022/05/07 10:02:47;;;;;;;13.80;7.05;;;;;;;20.41;46.94;100864.28;5155970;27;20030;-77
2022/05/07 10:05:31;;;;;;;15.70;7.13;;;;;;;20.36;45.95;100865.03;5155349;27;20113;-77
2022/05/07 10:08:19;;;;;;;12.88;7.40;;;;;;;20.56;46.48;100871.78;5156139;27;20117;-77
2022/05/07 10:10:47;;;;;;;14.63;6.80;;;;;;;20.60;46.07;100861.97;5158933;27;20508;-78
2022/05/07 10:13:16;;;;;;;14.98;6.88;;;;;;;20.83;45.29;100866.25;5158093;27;20096;-78
2022/05/07 10:15:44;;;;;;;12.48;5.97;;;;;;;20.99;45.17;100862.53;5158646;27;20475;-78
2022/05/07 10:18:14;;;;;;;14.10;7.00;;;;;;;20.91;43.90;100861.13;5158940;27;20373;-78
2022/05/07 10:20:48;;;;;;;14.30;6.63;;;;;;;20.92;44.09;100857.31;5159495;27;20042;-79
2022/05/07 10:23:15;;;;;;;15.05;6.60;;;;;;;20.88;44.48;100856.19;5159464;27;20084;-79
2022/05/07 10:25:45;;;;;;;12.68;6.53;;;;;;;21.14;44.49;100851.69;5157905;27;20087;-79
2022/05/07 10:28:15;;;;;;;11.05;6.32;;;;;;;21.13;43.79;100844.59;5158869;27;20030;-80
2022/05/07 10:30:52;;;;;;;12.40;6.78;;;;;;;21.02;43.26;100851.06;5158877;27;20521;-79
2022/05/07 10:33:19;;;;;;;13.73;6.88;;;;;;;21.10;43.66;100848.66;5159142;27;20026;-79
2022/05/07 10:35:54;;;;;;;12.00;6.78;;;;;;;21.05;42.86;100847.81;5158295;27;20054;-79
2022/05/07 10:38:22;;;;;;;13.95;6.53;;;;;;;21.17;43.50;100842.94;5159563;27;20035;-79
2022/05/07 10:40:50;;;;;;;13.52;6.95;;;;;;;21.00;44.07;100845.84;5156705;27;20392;-77
2022/05/07 10:43:38;;;;;;;11.20;6.32;;;;;;;21.33;43.31;100844.69;5156829;27;20105;-78
2022/05/07 10:46:12;;;;;;;13.77;6.43;;;;;;;21.57;43.31;100847.03;5156824;27;20019;-78
2022/05/07 10:49:01;;;;;;;12.38;6.25;;;;;;;21.61;43.21;100834.44;5138121;27;20126;-78
2022/05/07 10:51:27;;;;;;;11.48;6.10;;;;;;;21.70;42.88;100832.81;5142871;27;20469;-78
2022/05/07 10:53:57;;;;;;;12.05;6.45;;;;;;;21.60;42.18;100835.53;5156122;27;20380;-78
2022/05/07 10:56:23;;;;;;;12.80;6.68;;;;;;;21.38;42.62;100827.47;5155901;27;20051;-78
2022/05/07 10:58:54;;;;;;;13.82;6.03;;;;;;;21.30;42.57;100831.56;5156602;27;20030;-78
2022/05/07 11:01:22;;;;;;;11.65;6.03;;;;;;;21.11;43.38;100828.41;5157321;27;20082;-79
2022/05/07 11:03:48;;;;;;;10.02;5.88;;;;;;;21.04;43.15;100833.28;5138623;27;20370;-79
2022/05/07 11:06:15;;;;;;;14.77;6.07;;;;;;;20.72;43.59;100840.72;5157030;27;20031;-81
2022/05/07 11:08:52;;;;;;;9.63;5.80;;;;;;;20.63;44.28;100831.31;5158984;27;20030;-76
2022/05/07 11:11:18;;;;;;;12.40;6.00;;;;;;;20.73;43.02;100839.63;5158319;27;20026;-77
2022/05/07 11:13:54;;;;;;;10.32;5.47;;;;;;;20.79;43.18;100830.34;5158734;27;20023;-77
2022/05/07 11:16:21;;;;;;;13.63;5.93;;;;;;;21.06;42.36;100828.34;5158449;27;20030;-77
2022/05/07 11:18:51;;;;;;;12.40;5.90;;;;;;;21.11;41.87;100827.56;5158834;27;20030;-78
2022/05/07 11:21:21;;;;;;;11.55;5.75;;;;;;;21.24;42.15;100827.13;5158720;27;20031;-77
2022/05/07 11:23:59;;;;;;;12.48;4.90;;;;;;;21.51;41.97;100824.22;5158692;27;20091;-77
2022/05/07 11:26:25;;;;;;;11.40;4.82;;;;;;;21.66;42.36;100816.09;5158527;27;20022;-77
2022/05/07 11:28:52;;;;;;;11.10;5.28;;;;;;;21.69;41.46;100818.28;5158479;27;20034;-77
2022/05/07 11:31:29;;;;;;;10.60;4.97;;;;;;;21.85;40.89;100810.94;5158539;27;20469;-77
2022/05/07 11:34:11;;;;;;;13.82;5.03;;;;;;;21.78;41.03;100813.09;5159151;27;20062;-77
2022/05/07 11:36:38;;;;;;;10.25;5.20;;;;;;;21.83;41.00;100816.69;5158554;27;20114;-77
2022/05/07 11:39:05;;;;;;;9.80;4.72;;;;;;;22.02;39.22;100816.22;5158257;27;20086;-77
2022/05/07 11:41:31;;;;;;;13.30;5.80;;;;;;;21.91;38.84;100814.50;5157601;27;20122;-77
2022/05/07 11:46:57;;;;;;;11.35;5.47;;;;;;;21.74;39.12;100810.06;5160844;27;20059;-77
2022/05/07 11:49:34;;;;;;;7.28;3.65;;;;;;;21.85;40.62;100794.47;5159096;27;20380;-76
2022/05/07 11:52:08;;;;;;;9.93;4.63;;;;;;;21.79;39.84;100799.13;5159612;27;20022;-77